メインページ
METAR-TAF:

METAR-TAF

空港 :

Lloydminster, アルバータ州, カナダ

緯度: 53-19N, 経度: 110-04W, 海抜: 665m

現時点の気象観測

当レポートは38分前の04:00(UTC)に作成
南/南東の風 13kt
気温 -2°C
湿度 100%
気圧 1013 hPa
視程: 0.8km
着氷性の霧

METAR: CYLL 270400Z 16013KT 1/2SM FZFG VV002 M02/M02 A2991 RMK FG8 SLP166

時間: 21:38 (04:38 UTC)

予報

当レポートは4時間57分前の23:41(UTC)に作成
予報は27日の 00時(UTC)から 27日の 12時(UTC)まで有効
の風 10kt
視程: 0.4km
高度200ftの
着氷性の霧
27日の 00時(UTC)から 27日の 12時(UTC)まで一時的に
視程: 3.2km
高度600ftの曇り
(弱い) 着氷性, 霧雨, 靄

TAF: CYLL 262341Z 2700/2712 17010KT 1/4SM FZFG VV002 TEMPO 2700/2712 2SM -FZDZ BR OVC006 RMK NXT FCST BY 270600Z

4,000以上の空港の気象観測と天気予報(METAR報とTAF報)

利用可能な観測所は地図上に黄色い丸と赤い丸で示す。

丸の上にカーソルを重ねると観測所名を参照できる。

次にクリックすると気象観測と天気予報を参照できる。

マップの切り替え:黒色「×」印の緑ボタンをクリックして拡大、「-」印の緑ボタンをクリックして縮小、緑色の三角印をクリックして隣りの地図に切り替え


METAR-TAF: